Terminal Aerodrome Forecast
Issued by NWS Charleston, WV

Current Version | Previous Version | Graphics & Text | Print | Product List | Glossary On
Versions: 1 2 3 4 5 6 7 8 9 10 11 12 13 14 15 16 17 18 19 20 21 22 23
000
FTUS41 KRLX 221300 AAA
TAFCRW
TAF AMD
KCRW 221311Z 2213/2312 23009G15KT P6SM BKN040
     FM221340 VRB12G35KT 3SM SHRAGR BKN020 OVC035
     FM221400 27012G20KT P6SM SHRA BKN020 OVC035
     FM221700 26014G24KT P6SM SHRA BKN025
     FM222000 26012G23KT P6SM BKN040
     FM230000 28010G15KT P6SM SCT040
     FM230300 28006KT P6SM SCT040=

USA.gov is the U.S. government's official web portal to all federal, state and local government web resources and services.